createdAt,value
2018-12-05T00:00:35.892Z,5.60
2018-12-05T00:03:11.302Z,4.93
2018-12-05T00:05:44.274Z,4.77
2018-12-05T00:08:21.471Z,8.17
2018-12-05T00:10:53.895Z,5.17
2018-12-05T00:13:26.109Z,8.23
2018-12-05T00:16:00.782Z,11.33
2018-12-05T00:18:33.025Z,11.27
2018-12-05T00:21:14.372Z,4.90
2018-12-05T00:23:46.795Z,5.20
2018-12-05T00:26:21.453Z,4.83
2018-12-05T00:28:53.850Z,6.67
2018-12-05T00:31:26.803Z,6.40
2018-12-05T00:34:02.092Z,6.60
2018-12-05T00:36:34.178Z,6.27
2018-12-05T00:39:07.970Z,5.43
2018-12-05T00:41:39.822Z,2.93
2018-12-05T00:44:14.674Z,4.50
2018-12-05T00:46:46.804Z,3.97
2018-12-05T00:49:18.833Z,10.40
2018-12-05T00:51:53.503Z,6.43
2018-12-05T00:54:25.671Z,4.83
2018-12-05T00:57:00.487Z,7.23
2018-12-05T00:59:35.538Z,11.73
2018-12-05T01:02:07.640Z,8.87
2018-12-05T01:04:42.268Z,4.03
2018-12-05T01:07:17.569Z,8.27
2018-12-05T01:09:49.689Z,6.73
2018-12-05T01:12:21.703Z,10.20
2018-12-05T01:14:53.830Z,6.47
2018-12-05T01:20:42.242Z,4.47
2018-12-05T01:23:14.627Z,8.37
2018-12-05T01:25:46.659Z,6.33
2018-12-05T01:28:21.321Z,8.07
2018-12-05T01:30:53.533Z,4.03
2018-12-05T01:33:25.667Z,14.30
2018-12-05T01:35:57.619Z,5.17
2018-12-05T01:38:29.622Z,4.03
2018-12-05T01:41:01.749Z,5.60
2018-12-05T01:43:38.845Z,8.40
2018-12-05T01:46:11.723Z,3.53
2018-12-05T01:48:43.583Z,7.00
2018-12-05T01:51:15.834Z,4.57
2018-12-05T01:53:50.820Z,5.13
2018-12-05T01:56:25.599Z,5.20
2018-12-05T01:59:02.606Z,2.17
2018-12-05T02:01:35.096Z,4.13
2018-12-05T02:04:09.923Z,2.13
2018-12-05T02:06:42.382Z,3.90
2018-12-05T02:09:14.547Z,5.77
2018-12-05T02:11:46.893Z,2.47
2018-12-05T02:14:18.789Z,2.87
2018-12-05T02:16:53.572Z,3.47
2018-12-05T02:19:28.635Z,4.17
2018-12-05T02:22:01.060Z,5.03
2018-12-05T02:24:32.974Z,7.20
2018-12-05T02:27:05.294Z,2.67
2018-12-05T02:29:44.222Z,4.13
2018-12-05T02:32:19.580Z,3.03
2018-12-05T02:34:54.601Z,5.80
2018-12-05T02:37:27.046Z,6.60
2018-12-05T02:39:59.195Z,6.43
2018-12-05T02:42:31.403Z,12.20
2018-12-05T02:45:03.296Z,5.30
2018-12-05T02:47:35.361Z,8.07
2018-12-05T02:50:07.850Z,6.07
2018-12-05T02:52:39.865Z,2.87
2018-12-05T02:55:12.266Z,2.80
2018-12-05T02:57:47.851Z,6.03
2018-12-05T03:00:25.147Z,4.53
2018-12-05T03:02:57.176Z,3.20
2018-12-05T03:05:36.535Z,4.20
2018-12-05T03:08:08.349Z,7.77
2018-12-05T03:10:43.130Z,3.33
2018-12-05T03:13:18.807Z,2.53
2018-12-05T03:15:50.978Z,5.83
2018-12-05T03:18:25.784Z,2.70
2018-12-05T03:20:57.787Z,4.07
2018-12-05T03:23:29.727Z,7.60
2018-12-05T03:26:02.176Z,2.43
2018-12-05T03:28:34.864Z,7.87
2018-12-05T03:31:06.801Z,4.90
2018-12-05T03:33:38.895Z,3.70
2018-12-05T03:36:10.874Z,2.80
2018-12-05T03:38:43.668Z,8.77
2018-12-05T03:41:15.799Z,7.37
2018-12-05T03:43:49.200Z,3.13
2018-12-05T03:46:21.581Z,8.00
2018-12-05T03:48:56.409Z,4.53
2018-12-05T03:51:31.704Z,7.90
2018-12-05T03:54:03.499Z,6.47
2018-12-05T03:56:38.082Z,1.40
2018-12-05T03:59:10.714Z,4.27
2018-12-05T04:01:45.565Z,3.07
2018-12-05T04:04:21.643Z,5.23
2018-12-05T04:06:54.004Z,4.70
2018-12-05T04:09:25.997Z,8.50
2018-12-05T04:11:58.051Z,4.53
2018-12-05T04:14:30.962Z,5.00
2018-12-05T04:17:03.440Z,8.13
2018-12-05T04:19:35.346Z,3.93
2018-12-05T04:22:10.113Z,5.67
2018-12-05T04:24:42.349Z,4.97
2018-12-05T04:27:14.287Z,3.17
2018-12-05T04:29:46.366Z,4.57
2018-12-05T04:32:21.131Z,9.63
2018-12-05T04:34:53.444Z,5.97
2018-12-05T04:37:25.311Z,4.07
2018-12-05T04:40:00.784Z,4.87
2018-12-05T04:42:33.591Z,6.47
2018-12-05T04:45:05.995Z,7.03
2018-12-05T04:47:39.461Z,7.10
2018-12-05T04:50:14.740Z,6.20
2018-12-05T04:52:47.123Z,4.00
2018-12-05T04:55:19.221Z,9.13
2018-12-05T04:57:51.290Z,4.27
2018-12-05T05:00:23.463Z,5.77
2018-12-05T05:02:58.039Z,3.43
2018-12-05T05:05:30.327Z,5.73
2018-12-05T05:08:02.267Z,6.13
2018-12-05T05:10:34.098Z,2.93
2018-12-05T05:13:06.344Z,5.80
2018-12-05T05:15:41.400Z,10.90
2018-12-05T05:18:16.037Z,5.77
2018-12-05T05:20:49.397Z,3.43
2018-12-05T05:23:21.446Z,6.27
2018-12-05T05:25:54.174Z,11.87
2018-12-05T05:28:29.296Z,11.73
2018-12-05T05:31:01.396Z,11.37
2018-12-05T05:33:33.929Z,13.17
2018-12-05T05:36:05.753Z,14.90
2018-12-05T05:38:39.856Z,16.43
2018-12-05T05:41:11.638Z,12.57
2018-12-05T05:43:48.424Z,18.33
2018-12-05T05:46:21.634Z,46.63
2018-12-05T05:48:54.074Z,29.03
2018-12-05T05:51:26.162Z,28.97
2018-12-05T05:53:59.586Z,29.93
2018-12-05T05:56:34.805Z,25.93
2018-12-05T05:59:07.032Z,16.50
2018-12-05T06:01:40.542Z,16.90
2018-12-05T06:04:13.269Z,18.47
2018-12-05T06:06:45.607Z,25.13
2018-12-05T06:09:17.604Z,22.03
2018-12-05T06:11:52.526Z,19.57
2018-12-05T06:14:25.020Z,23.20
2018-12-05T06:16:58.182Z,25.50
2018-12-05T06:19:31.255Z,24.40
2018-12-05T06:22:04.794Z,21.60
2018-12-05T06:24:39.544Z,20.40
2018-12-05T06:27:11.844Z,17.00
2018-12-05T06:29:46.570Z,19.10
2018-12-05T06:32:18.745Z,16.63
2018-12-05T06:34:50.826Z,33.90
2018-12-05T06:37:22.907Z,30.50
2018-12-05T06:39:54.932Z,34.63
2018-12-05T06:42:27.308Z,58.40
2018-12-05T06:44:59.457Z,49.17
2018-12-05T06:47:34.562Z,86.13
2018-12-05T06:50:09.280Z,74.03
2018-12-05T06:52:47.497Z,50.43
2018-12-05T06:55:20.335Z,45.83
2018-12-05T06:57:56.143Z,37.43
2018-12-05T07:00:28.082Z,37.67
2018-12-05T07:03:01.795Z,28.30
2018-12-05T07:10:43.348Z,10.23
2018-12-05T07:13:18.079Z,12.97
2018-12-05T07:15:53.068Z,8.70
2018-12-05T07:18:25.214Z,9.53
2018-12-05T07:20:57.588Z,11.03
2018-12-05T07:23:33.138Z,10.00
2018-12-05T07:26:05.645Z,11.90
2018-12-05T07:28:44.204Z,13.77
2018-12-05T07:31:19.350Z,17.40
2018-12-05T07:33:51.634Z,8.20
2018-12-05T07:36:28.026Z,11.53
2018-12-05T07:39:00.870Z,9.47
2018-12-05T07:41:35.772Z,10.53
2018-12-05T07:44:10.799Z,15.43
2018-12-05T07:46:45.956Z,8.37
2018-12-05T07:49:18.251Z,13.60
2018-12-05T07:51:54.284Z,13.67
2018-12-05T07:54:29.243Z,12.83
2018-12-05T07:57:04.237Z,14.17
2018-12-05T07:59:39.208Z,13.20
2018-12-05T08:02:11.538Z,13.50
2018-12-05T08:04:44.961Z,11.67
2018-12-05T08:07:19.598Z,14.20
2018-12-05T08:09:54.548Z,11.17
2018-12-05T08:12:35.264Z,11.93
2018-12-05T08:15:10.525Z,9.40
2018-12-05T08:17:42.713Z,10.80
2018-12-05T08:20:17.471Z,11.10
2018-12-05T08:22:52.569Z,10.27
2018-12-05T08:25:24.536Z,17.43
2018-12-05T08:27:59.344Z,17.53
2018-12-05T08:30:34.368Z,13.43
2018-12-05T08:33:06.730Z,14.83
2018-12-05T08:35:38.776Z,12.37
2018-12-05T08:38:11.036Z,10.67
2018-12-05T08:40:45.876Z,14.87
2018-12-05T08:43:18.005Z,14.40
2018-12-05T08:45:52.831Z,14.83
2018-12-05T08:48:25.316Z,11.10
2018-12-05T08:50:57.253Z,14.33
2018-12-05T08:53:30.117Z,10.53
2018-12-05T08:56:05.407Z,11.27
2018-12-05T08:58:37.695Z,19.87
2018-12-05T09:01:12.464Z,11.53
2018-12-05T09:03:45.079Z,9.73
2018-12-05T09:06:20.888Z,11.83
2018-12-05T09:09:02.243Z,12.90
2018-12-05T09:11:37.624Z,13.40
2018-12-05T09:16:47.743Z,12.23
2018-12-05T09:21:57.006Z,12.57
2018-12-05T09:24:32.265Z,9.07
2018-12-05T09:27:04.511Z,13.07
2018-12-05T09:29:39.388Z,12.23
2018-12-05T09:32:11.666Z,7.27
2018-12-05T09:34:43.795Z,7.47
2018-12-05T09:37:15.935Z,7.80
2018-12-05T09:39:47.854Z,4.73
2018-12-05T09:42:22.887Z,6.93
2018-12-05T09:44:55.007Z,8.10
2018-12-05T09:47:27.746Z,5.33
2018-12-05T09:50:03.440Z,8.13
2018-12-05T09:52:38.771Z,7.03
2018-12-05T09:55:11.278Z,6.47
2018-12-05T09:57:43.462Z,7.93
2018-12-05T10:00:16.278Z,6.23
2018-12-05T10:02:50.883Z,6.43
2018-12-05T10:05:25.770Z,2.77
2018-12-05T10:08:00.803Z,6.00
2018-12-05T10:10:37.844Z,4.93
2018-12-05T10:13:15.214Z,9.57
2018-12-05T10:15:50.376Z,5.80
2018-12-05T10:18:23.020Z,5.63
2018-12-05T10:23:29.998Z,8.17
2018-12-05T10:26:03.708Z,7.67
2018-12-05T10:28:36.485Z,5.60
2018-12-05T10:31:09.327Z,6.03
2018-12-05T10:33:43.239Z,6.00
2018-12-05T10:36:18.418Z,5.97
2018-12-05T10:38:50.615Z,5.03
2018-12-05T10:41:26.754Z,8.40
2018-12-05T10:43:58.851Z,7.60
2018-12-05T10:46:33.780Z,6.87
2018-12-05T10:49:09.046Z,8.97
2018-12-05T10:51:41.053Z,7.47
2018-12-05T10:54:13.101Z,8.87
2018-12-05T10:56:45.931Z,7.50
2018-12-05T10:59:21.169Z,4.23
2018-12-05T11:02:01.534Z,8.33
2018-12-05T11:04:43.490Z,9.63
2018-12-05T11:07:24.234Z,6.23
2018-12-05T11:10:02.442Z,6.40
2018-12-05T11:12:42.207Z,7.83
2018-12-05T11:15:20.764Z,6.53
2018-12-05T11:17:58.600Z,5.77
2018-12-05T11:20:41.136Z,6.67
2018-12-05T11:23:19.075Z,8.43
2018-12-05T11:25:54.006Z,6.27
2018-12-05T11:28:28.702Z,9.30
2018-12-05T11:31:01.320Z,8.90
2018-12-05T11:33:35.521Z,7.00
2018-12-05T11:36:07.940Z,9.40
2018-12-05T11:38:42.922Z,4.83
2018-12-05T11:41:15.360Z,7.13
2018-12-05T11:43:50.862Z,7.23
2018-12-05T11:46:23.982Z,5.80
2018-12-05T11:48:56.234Z,7.00
2018-12-05T11:51:31.134Z,7.40
2018-12-05T11:54:03.518Z,7.03
2018-12-05T11:56:36.038Z,6.70
2018-12-05T11:59:08.730Z,8.70
2018-12-05T12:01:40.849Z,6.57
2018-12-05T12:04:13.675Z,10.20
2018-12-05T12:06:46.306Z,10.70
2018-12-05T12:09:18.350Z,6.40
2018-12-05T12:11:50.777Z,6.63
2018-12-05T12:14:27.371Z,6.60
2018-12-05T12:17:00.133Z,9.67
2018-12-05T12:19:32.005Z,7.93
2018-12-05T12:22:05.505Z,5.90
2018-12-05T12:24:40.491Z,8.20
2018-12-05T12:34:57.163Z,7.03
2018-12-05T12:37:30.431Z,6.67
2018-12-05T12:40:06.063Z,6.20
2018-12-05T12:42:38.150Z,9.37
2018-12-05T12:45:10.474Z,10.37
2018-12-05T12:47:45.967Z,6.70
2018-12-05T12:50:18.138Z,6.63
2018-12-05T12:52:50.122Z,8.03
2018-12-05T12:55:22.227Z,6.17
2018-12-05T12:57:54.417Z,8.57
2018-12-05T13:00:29.429Z,5.50
2018-12-05T13:03:08.562Z,7.20
2018-12-05T13:05:41.004Z,8.53
2018-12-05T13:08:13.141Z,8.87
2018-12-05T13:10:54.419Z,10.30
2018-12-05T13:13:27.543Z,10.77
2018-12-05T13:16:01.098Z,8.63
2018-12-05T13:18:36.083Z,6.73
2018-12-05T13:21:08.349Z,6.63
2018-12-05T13:23:43.258Z,8.40
2018-12-05T13:26:15.536Z,6.57
2018-12-05T13:28:47.571Z,8.63
2018-12-05T13:31:19.461Z,8.90
2018-12-05T13:33:52.975Z,6.97
2018-12-05T13:36:25.089Z,7.53
2018-12-05T13:38:57.584Z,10.03
2018-12-05T13:41:33.720Z,6.63
2018-12-05T13:44:05.961Z,12.97
2018-12-05T13:46:38.238Z,6.33
2018-12-05T13:49:10.310Z,7.30
2018-12-05T13:51:45.011Z,8.40
2018-12-05T13:54:20.068Z,14.83
2018-12-05T13:56:52.524Z,6.93
2018-12-05T13:59:24.576Z,5.80
2018-12-05T14:01:56.795Z,12.10
2018-12-05T14:04:29.064Z,6.03
2018-12-05T14:07:01.381Z,8.60
2018-12-05T14:09:35.974Z,7.00
2018-12-05T14:12:10.211Z,10.57
2018-12-05T14:14:42.410Z,10.47
2018-12-05T14:17:19.190Z,11.70
2018-12-05T14:20:00.003Z,6.60
2018-12-05T14:22:32.670Z,5.77
2018-12-05T14:25:08.099Z,9.30
2018-12-05T14:27:40.748Z,7.70
2018-12-05T14:30:26.147Z,10.37
2018-12-05T14:32:57.978Z,6.73
2018-12-05T14:35:29.917Z,7.37
2018-12-05T14:38:01.970Z,7.23
2018-12-05T14:40:35.186Z,14.17
2018-12-05T14:43:08.236Z,8.87
2018-12-05T14:45:40.635Z,11.17
2018-12-05T14:48:15.558Z,8.80
2018-12-05T14:50:51.137Z,9.07
2018-12-05T14:53:23.680Z,9.10
2018-12-05T14:56:08.972Z,7.23
2018-12-05T14:58:41.541Z,8.77
2018-12-05T15:01:17.174Z,13.87
2018-12-05T15:03:52.055Z,10.43
2018-12-05T15:06:24.596Z,10.93
2018-12-05T15:09:00.736Z,12.47
2018-12-05T15:11:35.478Z,12.60
2018-12-05T15:14:07.594Z,9.40
2018-12-05T15:16:39.768Z,12.90
2018-12-05T15:19:14.541Z,10.40
2018-12-05T15:21:49.618Z,11.07
2018-12-05T15:24:22.325Z,16.77
2018-12-05T15:26:54.861Z,12.73
2018-12-05T15:29:30.145Z,12.63
2018-12-05T15:32:05.750Z,12.37
2018-12-05T15:34:42.518Z,11.87
2018-12-05T15:37:15.691Z,14.50
2018-12-05T15:39:55.130Z,11.77
2018-12-05T15:42:29.992Z,9.97
2018-12-05T15:45:06.990Z,13.13
2018-12-05T15:50:14.832Z,16.67
2018-12-05T15:52:47.222Z,16.93
2018-12-05T15:55:19.872Z,17.53
2018-12-05T15:57:55.811Z,13.13
2018-12-05T16:00:28.286Z,20.43
2018-12-05T16:03:06.858Z,20.80
2018-12-05T16:05:39.305Z,25.53
2018-12-05T16:08:11.441Z,23.23
2018-12-05T16:10:43.938Z,24.10
2018-12-05T16:13:16.614Z,24.20
2018-12-05T16:15:48.834Z,26.53
2018-12-05T16:18:28.287Z,23.53
2018-12-05T16:21:00.787Z,20.43
2018-12-05T16:23:32.830Z,22.90
2018-12-05T16:26:10.813Z,22.03
2018-12-05T16:28:41.801Z,23.00
2018-12-05T16:31:13.930Z,26.87
2018-12-05T16:33:51.278Z,24.70
2018-12-05T16:36:27.410Z,23.73
2018-12-05T16:39:01.564Z,29.70
2018-12-05T16:41:34.431Z,26.47
2018-12-05T16:44:12.868Z,24.10
2018-12-05T16:46:41.314Z,25.13
2018-12-05T16:49:13.235Z,26.23
2018-12-05T16:51:45.130Z,25.07
2018-12-05T16:54:17.789Z,26.27
2018-12-05T16:56:51.971Z,26.10
2018-12-05T16:59:27.700Z,26.77
2018-12-05T17:02:03.045Z,25.20
2018-12-05T17:04:35.584Z,21.43
2018-12-05T17:07:12.221Z,23.90
2018-12-05T17:09:44.685Z,20.20
2018-12-05T17:12:16.864Z,15.37
2018-12-05T17:14:48.757Z,19.50
2018-12-05T17:17:24.646Z,13.70
2018-12-05T17:19:57.215Z,22.13
2018-12-05T17:22:32.409Z,11.67
2018-12-05T17:25:10.928Z,13.20
2018-12-05T17:27:43.601Z,15.77
2018-12-05T17:30:19.417Z,15.57
2018-12-05T17:32:52.352Z,19.23
2018-12-05T17:35:25.468Z,18.93
2018-12-05T17:37:58.346Z,20.83
2018-12-05T17:40:32.838Z,19.70
2018-12-05T17:43:08.172Z,20.37
2018-12-05T17:45:45.183Z,15.53
2018-12-05T17:48:18.797Z,20.50
2018-12-05T17:50:51.018Z,14.90
2018-12-05T17:53:22.938Z,16.30
2018-12-05T17:55:57.674Z,20.50
2018-12-05T17:58:29.865Z,17.87
2018-12-05T18:01:05.052Z,18.10
2018-12-05T18:03:37.118Z,14.03
2018-12-05T18:06:09.240Z,19.33
2018-12-05T18:08:41.436Z,10.80
2018-12-05T18:11:17.432Z,15.63
2018-12-05T18:13:50.591Z,17.13
2018-12-05T18:16:23.030Z,15.60
2018-12-05T18:19:04.337Z,15.67
2018-12-05T18:21:40.615Z,15.63
2018-12-05T18:24:13.181Z,17.87
2018-12-05T18:26:48.145Z,21.53
2018-12-05T18:29:23.821Z,19.47
2018-12-05T18:31:56.109Z,22.83
2018-12-05T18:34:28.341Z,15.97
2018-12-05T18:37:00.442Z,17.43
2018-12-05T18:39:33.370Z,20.03
2018-12-05T18:42:05.408Z,15.83
2018-12-05T18:44:40.065Z,20.70
2018-12-05T18:47:12.735Z,17.53
2018-12-05T18:49:45.155Z,20.03
2018-12-05T18:54:52.279Z,17.37
2018-12-05T18:57:28.192Z,23.77
2018-12-05T19:00:01.396Z,23.53
2018-12-05T19:02:33.624Z,24.57
2018-12-05T19:05:06.477Z,18.47
2018-12-05T19:07:41.070Z,20.97
2018-12-05T19:10:15.885Z,24.33
2018-12-05T19:12:50.650Z,23.57
2018-12-05T19:15:27.238Z,18.90
2018-12-05T19:18:01.838Z,26.03
2018-12-05T19:20:34.294Z,24.70
2018-12-05T19:23:10.859Z,25.57
2018-12-05T19:25:44.197Z,22.53
2018-12-05T19:28:19.200Z,28.13
2018-12-05T19:30:51.424Z,27.50
2018-12-05T19:33:23.879Z,31.60
2018-12-05T19:35:57.043Z,31.23
2018-12-05T19:38:29.560Z,20.50
2018-12-05T19:41:01.684Z,24.40
2018-12-05T19:43:33.652Z,22.20
2018-12-05T19:46:05.926Z,34.07
2018-12-05T19:48:40.626Z,23.47
2018-12-05T19:51:17.068Z,24.90
2018-12-05T19:53:52.034Z,28.33
2018-12-05T19:56:37.475Z,28.17
2018-12-05T19:59:10.104Z,32.53
2018-12-05T20:01:42.273Z,30.13
2018-12-05T20:04:17.901Z,31.20
2018-12-05T20:06:50.530Z,27.17
2018-12-05T20:09:22.475Z,22.00
2018-12-05T20:11:57.342Z,26.03
2018-12-05T20:14:29.680Z,23.83
2018-12-05T20:17:01.591Z,23.50
2018-12-05T20:19:33.740Z,20.87
2018-12-05T20:22:08.814Z,20.83
2018-12-05T20:24:45.036Z,20.13
2018-12-05T20:27:19.910Z,15.10
2018-12-05T20:29:52.837Z,18.57
2018-12-05T20:32:29.018Z,18.97
2018-12-05T20:35:02.428Z,23.37
2018-12-05T20:37:41.913Z,25.80
2018-12-05T20:40:14.379Z,20.83
2018-12-05T20:42:46.738Z,16.60
2018-12-05T20:45:19.442Z,15.93
2018-12-05T20:47:54.382Z,18.73
2018-12-05T20:50:29.059Z,17.67
2018-12-05T20:53:01.708Z,19.30
2018-12-05T20:55:34.859Z,14.07
2018-12-05T20:58:07.707Z,16.17
2018-12-05T21:00:40.447Z,17.13
2018-12-05T21:08:21.938Z,13.90
2018-12-05T21:10:54.192Z,19.13
2018-12-05T21:13:26.189Z,22.13
2018-12-05T21:15:58.337Z,27.43
2018-12-05T21:18:30.548Z,19.83
2018-12-05T21:21:05.890Z,25.10
2018-12-05T21:23:43.267Z,19.63
2018-12-05T21:26:15.405Z,26.37
2018-12-05T21:28:47.246Z,23.50
2018-12-05T21:31:19.347Z,25.30
2018-12-05T21:33:51.775Z,23.97
2018-12-05T21:36:30.254Z,24.53
2018-12-05T21:39:02.624Z,18.07
2018-12-05T21:41:35.079Z,20.40
2018-12-05T21:45:05.623Z,22.53
2018-12-05T21:47:42.401Z,16.67
2018-12-05T21:50:16.005Z,23.17
2018-12-05T21:52:50.790Z,19.20
2018-12-05T21:55:26.266Z,22.53
2018-12-05T21:57:59.628Z,32.57
2018-12-05T22:00:34.202Z,24.60
2018-12-05T22:03:06.532Z,33.77
2018-12-05T22:05:38.709Z,27.80
2018-12-05T22:08:13.814Z,21.43
2018-12-05T22:10:48.800Z,19.30
2018-12-05T22:13:21.107Z,22.57
2018-12-05T22:19:12.853Z,24.80
2018-12-05T22:24:49.874Z,18.43
2018-12-05T22:27:24.797Z,18.87
2018-12-05T22:30:00.215Z,26.47
2018-12-05T22:32:34.807Z,19.53
2018-12-05T22:35:09.764Z,20.00
2018-12-05T22:37:44.910Z,18.63
2018-12-05T22:40:17.167Z,18.73
2018-12-05T22:42:55.751Z,20.53
2018-12-05T22:45:31.917Z,19.53
2018-12-05T22:48:04.323Z,25.33
2018-12-05T22:50:43.040Z,21.93
2018-12-05T22:53:18.559Z,19.63
2018-12-05T22:55:57.642Z,23.23
2018-12-05T22:58:30.090Z,24.37
2018-12-05T23:04:17.231Z,19.73
2018-12-05T23:06:49.483Z,22.63
2018-12-05T23:09:24.163Z,21.17
2018-12-05T23:11:57.271Z,15.73
2018-12-05T23:14:34.705Z,20.50
2018-12-05T23:17:09.954Z,17.63
2018-12-05T23:19:44.618Z,20.47
2018-12-05T23:22:19.490Z,21.30
2018-12-05T23:24:51.598Z,15.53
2018-12-05T23:27:23.981Z,19.43
2018-12-05T23:29:58.743Z,17.50
2018-12-05T23:32:31.071Z,15.27
2018-12-05T23:35:06.254Z,20.23
2018-12-05T23:37:40.946Z,24.43
2018-12-05T23:40:15.942Z,16.23
2018-12-05T23:42:54.885Z,17.27
2018-12-05T23:45:30.022Z,15.17
2018-12-05T23:48:02.031Z,18.00
2018-12-05T23:50:34.250Z,15.03
2018-12-05T23:53:09.139Z,20.23
2018-12-05T23:55:41.516Z,15.13
2018-12-05T23:58:13.539Z,22.93
